Time;durP1;ratioP1;P1;durP2;ratioP2;P2;SDS_P1;SDS_P2;PMS_P1;PMS_P2;Temp;Humidity;BMP_temperature;BMP_pressure;BME280_temperature;BME280_humidity;BME280_pressure;Samples;Min_cycle;Max_cycle;Signal;HPM_P1;HPM_P2
2023/12/26 00:00:20;;;;;;;2.25;1.00;;;;;;;;;;5125219;28;20134;-64
2023/12/26 00:02:46;;;;;;;4.53;1.63;;;;;;;;;;5103466;28;20038;-66
2023/12/26 00:05:12;;;;;;;3.53;1.42;;;;;;;;;;5123612;28;20035;-65
2023/12/26 00:07:40;;;;;;;3.88;1.13;;;;;;;;;;5121963;28;20043;-64
2023/12/26 00:10:06;;;;;;;2.15;1.00;;;;;;;;;;5124159;28;20130;-63
2023/12/26 00:12:32;;;;;;;3.03;1.13;;;;;;;;;;5122057;27;20129;-65
2023/12/26 00:14:59;;;;;;;2.50;1.30;;;;;;;;;;5123771;27;20047;-65
2023/12/26 00:17:25;;;;;;;1.73;0.85;;;;;;;;;;5126126;27;20049;-66
2023/12/26 00:19:51;;;;;;;2.97;1.75;;;;;;;;;;5127417;27;20190;-65
2023/12/26 00:22:17;;;;;;;2.42;1.13;;;;;;;;;;5126226;27;20465;-65
2023/12/26 00:24:43;;;;;;;3.53;1.20;;;;;;;;;;5127448;27;20058;-65
2023/12/26 00:27:09;;;;;;;2.70;0.93;;;;;;;;;;5125854;27;20041;-66
2023/12/26 00:29:35;;;;;;;2.17;1.10;;;;;;;;;;5127211;27;21068;-66
2023/12/26 00:32:02;;;;;;;3.97;1.23;;;;;;;;;;5107246;27;20043;-66
2023/12/26 00:34:28;;;;;;;8.43;1.67;;;;;;;;;;5128025;27;21079;-66
2023/12/26 00:36:54;;;;;;;1.80;0.80;;;;;;;;;;5126785;27;20424;-65
2023/12/26 00:39:21;;;;;;;6.25;1.38;;;;;;;;;;5128727;27;20039;-66
2023/12/26 00:41:47;;;;;;;5.75;1.42;;;;;;;;;;5128254;27;20039;-65
2023/12/26 00:44:13;;;;;;;4.75;1.52;;;;;;;;;;5128377;27;20583;-65
2023/12/26 00:46:39;;;;;;;4.55;2.08;;;;;;;;;;5106483;27;20047;-64
2023/12/26 00:49:05;;;;;;;3.67;1.50;;;;;;;;;;5128330;27;20050;-65
2023/12/26 00:51:31;;;;;;;5.60;1.73;;;;;;;;;;5128221;27;20039;-66
2023/12/26 00:53:58;;;;;;;5.72;2.28;;;;;;;;;;5126961;27;20123;-66
2023/12/26 00:56:24;;;;;;;4.47;1.60;;;;;;;;;;5126401;27;20062;-65
2023/12/26 00:58:50;;;;;;;8.60;1.92;;;;;;;;;;5126389;27;20045;-65
2023/12/26 01:01:16;;;;;;;5.88;1.55;;;;;;;;;;5126573;27;20663;-66
2023/12/26 01:03:42;;;;;;;5.13;2.03;;;;;;;;;;5126376;27;20369;-69
2023/12/26 01:06:08;;;;;;;9.80;2.30;;;;;;;;;;5127069;27;20039;-67
2023/12/26 01:08:34;;;;;;;6.68;2.45;;;;;;;;;;5126325;27;20051;-66
2023/12/26 01:11:00;;;;;;;7.00;2.40;;;;;;;;;;5126861;27;20050;-66
2023/12/26 01:13:34;;;;;;;6.30;2.53;;;;;;;;;;5126306;27;20050;-66
2023/12/26 01:16:00;;;;;;;7.35;2.40;;;;;;;;;;5109337;27;20107;-66
2023/12/26 01:18:26;;;;;;;8.40;2.90;;;;;;;;;;5126519;27;20034;-66
2023/12/26 01:20:52;;;;;;;11.73;3.05;;;;;;;;;;5104981;27;20058;-66
2023/12/26 01:23:18;;;;;;;8.98;2.25;;;;;;;;;;5125077;27;20505;-66
2023/12/26 01:25:44;;;;;;;11.85;2.70;;;;;;;;;;5106401;27;20035;-67
2023/12/26 01:28:10;;;;;;;8.55;2.47;;;;;;;;;;5105617;27;20042;-66
2023/12/26 01:30:39;;;;;;;10.50;2.17;;;;;;;;;;5125957;27;20106;-67
2023/12/26 01:33:05;;;;;;;8.07;1.92;;;;;;;;;;5125700;27;20155;-66
2023/12/26 01:35:31;;;;;;;8.27;2.35;;;;;;;;;;5106502;27;20088;-66
2023/12/26 01:37:57;;;;;;;7.88;4.05;;;;;;;;;;5124897;27;20175;-67
2023/12/26 01:40:23;;;;;;;7.53;2.10;;;;;;;;;;5125994;27;20526;-68
2023/12/26 01:42:50;;;;;;;7.97;2.10;;;;;;;;;;5125494;27;20042;-66
2023/12/26 01:45:16;;;;;;;6.07;1.75;;;;;;;;;;5124235;27;20057;-67
2023/12/26 01:47:48;;;;;;;7.03;1.83;;;;;;;;;;5124289;27;20156;-66
2023/12/26 01:50:15;;;;;;;6.55;2.25;;;;;;;;;;5126171;27;20062;-65
2023/12/26 01:52:41;;;;;;;8.20;2.92;;;;;;;;;;5123416;27;20035;-66
2023/12/26 01:55:08;;;;;;;7.90;2.50;;;;;;;;;;5125262;27;20123;-65
2023/12/26 01:57:35;;;;;;;7.38;2.25;;;;;;;;;;5125025;27;20039;-64
2023/12/26 02:00:04;;;;;;;10.70;2.53;;;;;;;;;;5125792;27;20126;-66
2023/12/26 02:02:32;;;;;;;8.18;2.65;;;;;;;;;;5124002;27;20035;-67
2023/12/26 02:04:59;;;;;;;7.20;2.40;;;;;;;;;;5106724;27;20163;-66
2023/12/26 02:07:25;;;;;;;6.93;3.13;;;;;;;;;;5123897;27;20042;-66
2023/12/26 02:09:51;;;;;;;6.32;2.50;;;;;;;;;;5123941;27;20070;-66
2023/12/26 02:12:18;;;;;;;5.30;2.13;;;;;;;;;;5124582;27;20309;-65
2023/12/26 02:14:44;;;;;;;7.85;2.30;;;;;;;;;;5124274;27;20502;-66
2023/12/26 02:17:13;;;;;;;6.68;2.65;;;;;;;;;;5124484;27;20279;-66
2023/12/26 02:19:43;;;;;;;9.20;2.80;;;;;;;;;;5123997;27;20140;-65
2023/12/26 02:22:09;;;;;;;10.48;2.58;;;;;;;;;;5123802;27;20324;-65
2023/12/26 02:24:36;;;;;;;11.25;2.78;;;;;;;;;;5125366;27;20062;-65
2023/12/26 02:27:02;;;;;;;10.38;3.20;;;;;;;;;;5123386;27;20043;-66
2023/12/26 02:29:29;;;;;;;8.20;2.60;;;;;;;;;;5123067;27;20058;-66
2023/12/26 02:31:55;;;;;;;10.75;2.90;;;;;;;;;;5124658;27;20161;-65
2023/12/26 02:34:22;;;;;;;5.97;2.70;;;;;;;;;;5124346;27;20470;-65
2023/12/26 02:36:48;;;;;;;10.98;3.38;;;;;;;;;;5122079;27;20043;-65
2023/12/26 02:39:15;;;;;;;7.60;2.50;;;;;;;;;;5123423;27;20603;-65
2023/12/26 02:41:41;;;;;;;6.20;2.70;;;;;;;;;;5122983;27;20465;-66
2023/12/26 02:44:07;;;;;;;5.05;2.60;;;;;;;;;;5104280;27;20038;-66
2023/12/26 02:46:33;;;;;;;8.80;2.70;;;;;;;;;;5124368;27;20035;-66
2023/12/26 02:48:59;;;;;;;9.02;3.25;;;;;;;;;;5123579;27;20039;-65
2023/12/26 02:51:26;;;;;;;8.65;2.78;;;;;;;;;;5123349;27;20421;-65
2023/12/26 02:53:52;;;;;;;6.43;2.40;;;;;;;;;;5122229;27;20035;-65
2023/12/26 02:56:18;;;;;;;8.35;2.72;;;;;;;;;;5103977;27;20046;-65
2023/12/26 02:58:44;;;;;;;8.02;2.22;;;;;;;;;;5104263;27;20129;-66
2023/12/26 03:01:10;;;;;;;8.38;3.45;;;;;;;;;;5123747;27;20035;-65
2023/12/26 03:03:36;;;;;;;7.20;2.42;;;;;;;;;;5123332;27;20486;-65
2023/12/26 03:06:02;;;;;;;13.18;3.47;;;;;;;;;;5122995;27;20077;-65
2023/12/26 03:08:28;;;;;;;9.80;2.55;;;;;;;;;;5122809;27;20394;-66
2023/12/26 03:10:55;;;;;;;7.43;3.38;;;;;;;;;;5123165;27;20134;-65
2023/12/26 03:13:21;;;;;;;9.93;2.88;;;;;;;;;;5104015;27;20130;-65
2023/12/26 03:15:47;;;;;;;5.57;2.97;;;;;;;;;;5123700;27;20142;-65
2023/12/26 03:18:13;;;;;;;13.23;2.72;;;;;;;;;;5122784;27;21281;-64
2023/12/26 03:20:39;;;;;;;10.15;3.13;;;;;;;;;;5123134;27;20710;-64
2023/12/26 03:23:05;;;;;;;7.88;2.97;;;;;;;;;;5101929;27;20554;-65
2023/12/26 03:25:31;;;;;;;8.73;3.00;;;;;;;;;;5122319;27;20039;-66
2023/12/26 03:27:58;;;;;;;11.65;3.28;;;;;;;;;;5121629;27;20153;-64
2023/12/26 03:30:24;;;;;;;8.93;3.42;;;;;;;;;;5121593;27;20099;-64
2023/12/26 03:32:50;;;;;;;7.43;2.22;;;;;;;;;;5123100;28;20455;-66
2023/12/26 03:35:16;;;;;;;8.02;2.97;;;;;;;;;;5122387;28;20205;-64
2023/12/26 03:37:42;;;;;;;11.32;3.70;;;;;;;;;;5120557;28;20084;-64
2023/12/26 03:40:09;;;;;;;13.13;3.50;;;;;;;;;;5103079;28;20070;-64
2023/12/26 03:42:35;;;;;;;12.25;2.90;;;;;;;;;;5122877;28;20926;-65
2023/12/26 03:45:01;;;;;;;16.65;4.40;;;;;;;;;;5122473;28;20370;-65
2023/12/26 03:47:27;;;;;;;10.27;3.55;;;;;;;;;;5123420;28;20039;-65
2023/12/26 03:49:53;;;;;;;14.23;3.53;;;;;;;;;;5123179;27;20039;-65
2023/12/26 03:52:19;;;;;;;14.20;3.75;;;;;;;;;;5125800;27;20047;-66
2023/12/26 03:54:45;;;;;;;8.30;4.47;;;;;;;;;;5127274;27;20172;-65
2023/12/26 03:57:12;;;;;;;14.48;3.90;;;;;;;;;;5126872;27;20469;-65
2023/12/26 03:59:38;;;;;;;7.55;3.28;;;;;;;;;;5127448;27;20099;-66
2023/12/26 04:02:05;;;;;;;11.57;3.47;;;;;;;;;;5127128;27;20038;-65
2023/12/26 04:04:31;;;;;;;8.18;3.90;;;;;;;;;;5126739;27;20027;-65
2023/12/26 04:06:57;;;;;;;9.77;3.72;;;;;;;;;;5125142;27;20046;-66
2023/12/26 04:09:23;;;;;;;9.50;3.03;;;;;;;;;;5126969;27;20125;-66
2023/12/26 04:11:49;;;;;;;10.18;3.42;;;;;;;;;;5125047;27;20039;-65
2023/12/26 04:14:16;;;;;;;5.00;2.67;;;;;;;;;;5125803;27;20707;-65
2023/12/26 04:16:42;;;;;;;12.35;3.72;;;;;;;;;;5126774;27;20027;-65
2023/12/26 04:19:08;;;;;;;12.30;4.13;;;;;;;;;;5126355;27;20043;-66
2023/12/26 04:21:35;;;;;;;14.35;4.05;;;;;;;;;;5107152;27;20054;-65
2023/12/26 04:24:01;;;;;;;13.00;5.10;;;;;;;;;;5126375;27;20581;-65
2023/12/26 04:26:27;;;;;;;8.80;3.63;;;;;;;;;;5126818;27;20035;-66
2023/12/26 04:28:53;;;;;;;10.20;3.50;;;;;;;;;;5125926;27;20035;-65
2023/12/26 04:31:19;;;;;;;11.88;4.38;;;;;;;;;;5106810;27;20918;-65
2023/12/26 04:33:45;;;;;;;7.40;3.03;;;;;;;;;;5126618;27;20043;-65
2023/12/26 04:36:12;;;;;;;8.15;3.28;;;;;;;;;;5125283;27;20463;-65
2023/12/26 04:38:38;;;;;;;16.17;4.25;;;;;;;;;;5126111;27;20047;-65
2023/12/26 04:41:09;;;;;;;12.30;3.45;;;;;;;;;;5107498;27;20039;-65
2023/12/26 04:43:35;;;;;;;10.30;4.03;;;;;;;;;;5107787;27;20482;-66
2023/12/26 04:46:01;;;;;;;19.13;3.05;;;;;;;;;;5126174;27;20059;-65
2023/12/26 04:48:27;;;;;;;12.27;3.83;;;;;;;;;;5126408;27;20913;-64
2023/12/26 04:50:54;;;;;;;14.90;4.10;;;;;;;;;;5124565;27;20047;-65
2023/12/26 04:53:20;;;;;;;11.88;3.47;;;;;;;;;;5125420;27;20074;-64
2023/12/26 04:55:46;;;;;;;11.70;3.80;;;;;;;;;;5126255;27;20054;-66
2023/12/26 04:58:12;;;;;;;13.07;4.72;;;;;;;;;;5125705;27;20089;-65
2023/12/26 05:00:38;;;;;;;13.57;3.38;;;;;;;;;;5125559;27;20031;-65
2023/12/26 05:03:04;;;;;;;6.63;3.13;;;;;;;;;;5105583;27;20046;-65
2023/12/26 05:05:31;;;;;;;12.60;3.60;;;;;;;;;;5125589;27;20039;-66
2023/12/26 05:07:57;;;;;;;12.75;4.07;;;;;;;;;;5125575;27;20050;-65
2023/12/26 05:10:23;;;;;;;12.00;3.33;;;;;;;;;;5123594;27;20440;-65
2023/12/26 05:12:51;;;;;;;13.98;4.32;;;;;;;;;;5122091;27;20638;-64
2023/12/26 05:15:17;;;;;;;13.73;3.83;;;;;;;;;;5124180;27;20497;-65
2023/12/26 05:17:43;;;;;;;9.10;3.50;;;;;;;;;;5124863;27;20083;-65
2023/12/26 05:20:10;;;;;;;6.25;3.40;;;;;;;;;;5105503;27;20058;-65
2023/12/26 05:22:36;;;;;;;6.95;3.20;;;;;;;;;;5124454;27;20457;-64
2023/12/26 05:25:02;;;;;;;18.25;3.80;;;;;;;;;;5125930;27;20059;-64
2023/12/26 05:27:28;;;;;;;7.65;3.00;;;;;;;;;;5125442;27;20043;-65
2023/12/26 05:29:54;;;;;;;8.48;3.65;;;;;;;;;;5124160;27;20054;-65
2023/12/26 05:32:20;;;;;;;11.35;2.92;;;;;;;;;;5105717;27;20575;-65
2023/12/26 05:34:48;;;;;;;9.75;3.30;;;;;;;;;;5125326;27;20430;-65
2023/12/26 05:37:14;;;;;;;14.63;3.70;;;;;;;;;;5123593;27;20034;-66
2023/12/26 05:39:43;;;;;;;10.43;3.45;;;;;;;;;;5125629;27;20039;-65
2023/12/26 05:42:09;;;;;;;8.63;4.40;;;;;;;;;;5125472;27;20142;-66
2023/12/26 05:44:37;;;;;;;8.27;2.60;;;;;;;;;;5105535;27;20031;-64
2023/12/26 05:47:04;;;;;;;9.48;3.05;;;;;;;;;;5104949;27;20047;-64
2023/12/26 05:49:31;;;;;;;6.38;2.85;;;;;;;;;;5124158;27;20229;-66
2023/12/26 05:51:57;;;;;;;10.27;3.45;;;;;;;;;;5124374;27;20447;-64
2023/12/26 05:54:23;;;;;;;8.63;2.67;;;;;;;;;;5124430;27;20047;-64
2023/12/26 05:56:49;;;;;;;10.75;3.20;;;;;;;;;;5125388;27;20028;-65
2023/12/26 05:59:15;;;;;;;7.68;3.00;;;;;;;;;;5124516;27;20055;-64
2023/12/26 06:01:45;;;;;;;9.50;3.85;;;;;;;;;;5125240;27;20076;-64
2023/12/26 06:04:11;;;;;;;9.00;3.20;;;;;;;;;;5123308;27;20616;-65
2023/12/26 06:06:37;;;;;;;10.27;3.67;;;;;;;;;;5124777;27;20366;-63
2023/12/26 06:09:03;;;;;;;13.98;3.85;;;;;;;;;;5123459;27;20138;-64
2023/12/26 06:11:29;;;;;;;11.55;4.00;;;;;;;;;;5125693;27;20043;-64
2023/12/26 06:13:56;;;;;;;10.68;3.05;;;;;;;;;;5104810;27;20035;-65
2023/12/26 06:16:22;;;;;;;12.60;3.47;;;;;;;;;;5124714;27;21421;-65
2023/12/26 06:18:48;;;;;;;16.15;4.43;;;;;;;;;;5125020;27;20755;-65
2023/12/26 06:21:14;;;;;;;10.23;3.75;;;;;;;;;;5124215;27;20035;-66
2023/12/26 06:23:40;;;;;;;9.15;3.95;;;;;;;;;;5124365;27;20452;-65
2023/12/26 06:26:08;;;;;;;8.20;3.20;;;;;;;;;;5124623;27;20047;-66
2023/12/26 06:28:34;;;;;;;14.50;3.65;;;;;;;;;;5120279;27;20436;-65
2023/12/26 06:31:00;;;;;;;12.38;3.10;;;;;;;;;;5120684;27;20506;-65
2023/12/26 06:33:27;;;;;;;10.95;3.65;;;;;;;;;;5120993;27;20043;-65
2023/12/26 06:35:53;;;;;;;18.17;4.22;;;;;;;;;;5102674;27;20035;-65
2023/12/26 06:38:19;;;;;;;14.38;5.53;;;;;;;;;;5121089;27;20042;-65
2023/12/26 06:40:45;;;;;;;10.18;4.00;;;;;;;;;;5102935;27;20139;-65
2023/12/26 06:43:12;;;;;;;12.73;4.30;;;;;;;;;;5120243;27;21241;-65
2023/12/26 06:45:38;;;;;;;15.88;4.80;;;;;;;;;;5121952;27;20046;-65
2023/12/26 06:48:05;;;;;;;18.17;4.93;;;;;;;;;;5102335;27;20051;-66
2023/12/26 06:50:31;;;;;;;14.45;3.90;;;;;;;;;;5121213;27;20550;-65
2023/12/26 06:52:57;;;;;;;18.95;4.80;;;;;;;;;;5118508;27;20043;-65
2023/12/26 06:55:23;;;;;;;14.50;4.07;;;;;;;;;;5121471;27;20047;-65
2023/12/26 06:57:49;;;;;;;11.95;3.10;;;;;;;;;;5100474;27;20047;-65
2023/12/26 07:00:17;;;;;;;11.35;3.60;;;;;;;;;;5121734;27;20043;-65
2023/12/26 07:02:44;;;;;;;12.55;3.83;;;;;;;;;;5119150;27;20046;-65
2023/12/26 07:05:10;;;;;;;11.43;4.20;;;;;;;;;;5120284;27;20043;-66
2023/12/26 07:07:36;;;;;;;9.77;4.60;;;;;;;;;;5119705;27;20042;-66
2023/12/26 07:10:02;;;;;;;11.95;4.32;;;;;;;;;;5121585;27;20567;-65
2023/12/26 07:12:28;;;;;;;13.20;4.20;;;;;;;;;;5119451;27;20579;-65
2023/12/26 07:14:54;;;;;;;7.95;4.97;;;;;;;;;;5121555;27;20047;-65
2023/12/26 07:17:21;;;;;;;11.15;3.65;;;;;;;;;;5101236;27;20099;-65
2023/12/26 07:19:47;;;;;;;12.85;4.40;;;;;;;;;;5120944;27;20035;-66
2023/12/26 07:22:13;;;;;;;20.85;5.32;;;;;;;;;;5098238;27;20168;-66
2023/12/26 07:24:39;;;;;;;16.88;4.93;;;;;;;;;;5119740;27;20532;-65
2023/12/26 07:27:05;;;;;;;11.75;3.70;;;;;;;;;;5120432;27;20035;-66
2023/12/26 07:29:31;;;;;;;12.15;4.80;;;;;;;;;;5120449;27;20054;-65
2023/12/26 07:31:58;;;;;;;11.25;3.70;;;;;;;;;;5121068;27;20047;-66
2023/12/26 07:34:24;;;;;;;10.27;3.65;;;;;;;;;;5121347;27;20077;-66
2023/12/26 07:36:50;;;;;;;9.90;3.75;;;;;;;;;;5119488;28;20458;-65
2023/12/26 07:39:16;;;;;;;18.92;5.60;;;;;;;;;;5102084;27;21463;-66
2023/12/26 07:41:42;;;;;;;8.43;3.58;;;;;;;;;;5120045;27;20084;-65
2023/12/26 07:44:08;;;;;;;16.77;3.85;;;;;;;;;;5120354;28;20062;-66
2023/12/26 07:46:34;;;;;;;13.20;4.13;;;;;;;;;;5119647;28;20469;-66
2023/12/26 07:49:01;;;;;;;15.00;4.22;;;;;;;;;;5102058;28;20071;-65
2023/12/26 07:51:27;;;;;;;14.70;4.15;;;;;;;;;;5117677;28;20046;-66
2023/12/26 07:53:53;;;;;;;14.57;4.20;;;;;;;;;;5119639;28;20125;-64
2023/12/26 07:56:19;;;;;;;12.30;3.33;;;;;;;;;;5117006;28;20616;-65
2023/12/26 07:58:46;;;;;;;10.57;3.38;;;;;;;;;;5118644;28;20043;-65
2023/12/26 08:01:13;;;;;;;14.63;3.97;;;;;;;;;;5101716;28;20036;-65
2023/12/26 08:03:40;;;;;;;9.13;3.85;;;;;;;;;;5118977;27;20047;-65
2023/12/26 08:06:06;;;;;;;16.15;4.53;;;;;;;;;;5119232;27;20123;-65
2023/12/26 08:08:32;;;;;;;15.30;4.00;;;;;;;;;;5113821;27;20240;-66
2023/12/26 08:10:58;;;;;;;16.70;5.43;;;;;;;;;;5117213;27;20070;-65
2023/12/26 08:13:24;;;;;;;17.80;4.50;;;;;;;;;;5120519;28;20047;-65
2023/12/26 08:15:50;;;;;;;11.65;4.03;;;;;;;;;;5099497;27;20046;-65
2023/12/26 08:18:16;;;;;;;10.50;3.72;;;;;;;;;;5120118;28;20050;-65
2023/12/26 08:20:42;;;;;;;8.02;3.95;;;;;;;;;;5119964;27;20513;-65
2023/12/26 08:23:09;;;;;;;10.88;3.65;;;;;;;;;;5120209;28;20043;-66
2023/12/26 08:25:37;;;;;;;12.55;4.25;;;;;;;;;;5121803;27;20054;-65
2023/12/26 08:28:03;;;;;;;13.27;4.82;;;;;;;;;;5122188;28;20082;-65
2023/12/26 08:30:29;;;;;;;17.67;5.38;;;;;;;;;;5085713;28;20130;-67
2023/12/26 08:32:57;;;;;;;8.90;3.88;;;;;;;;;;5119496;27;20547;-66
2023/12/26 08:35:23;;;;;;;13.27;4.78;;;;;;;;;;5099325;28;20051;-64
2023/12/26 08:37:49;;;;;;;12.13;3.25;;;;;;;;;;5122757;27;20140;-66
2023/12/26 08:40:18;;;;;;;14.32;5.20;;;;;;;;;;5071947;27;20076;-66
2023/12/26 08:42:44;;;;;;;9.48;3.67;;;;;;;;;;5125566;27;20448;-65
2023/12/26 08:45:11;;;;;;;14.82;5.18;;;;;;;;;;5105505;27;20529;-66
2023/12/26 08:47:37;;;;;;;13.15;3.97;;;;;;;;;;5123830;27;20170;-65
2023/12/26 08:50:05;;;;;;;7.38;2.67;;;;;;;;;;5124119;27;20054;-66
2023/12/26 08:52:31;;;;;;;12.00;4.63;;;;;;;;;;5120867;27;20085;-66
2023/12/26 08:54:58;;;;;;;13.95;3.58;;;;;;;;;;5123474;27;21024;-66
2023/12/26 08:57:24;;;;;;;15.48;3.72;;;;;;;;;;5122258;27;20090;-66
2023/12/26 08:59:50;;;;;;;15.93;4.60;;;;;;;;;;5124061;27;20521;-65
2023/12/26 09:02:16;;;;;;;9.60;3.90;;;;;;;;;;5103994;27;20478;-67
2023/12/26 09:04:42;;;;;;;13.25;3.97;;;;;;;;;;5123480;27;20065;-66
2023/12/26 09:07:09;;;;;;;11.90;4.65;;;;;;;;;;5103589;27;20475;-66
2023/12/26 09:09:35;;;;;;;12.15;4.03;;;;;;;;;;5123759;27;20203;-66
2023/12/26 09:12:01;;;;;;;17.67;4.45;;;;;;;;;;5102838;27;20485;-66
2023/12/26 09:14:27;;;;;;;8.98;3.10;;;;;;;;;;5104435;27;20131;-65
2023/12/26 09:16:54;;;;;;;12.85;3.50;;;;;;;;;;5124206;27;20040;-65
2023/12/26 09:19:20;;;;;;;12.15;3.58;;;;;;;;;;5125379;27;20062;-66
2023/12/26 09:21:47;;;;;;;12.05;3.72;;;;;;;;;;5125256;27;20043;-65
2023/12/26 09:24:13;;;;;;;10.13;3.13;;;;;;;;;;5124294;27;20606;-65
2023/12/26 09:26:39;;;;;;;17.75;4.57;;;;;;;;;;5125625;27;20499;-66
2023/12/26 09:29:05;;;;;;;9.75;4.32;;;;;;;;;;5125655;27;20039;-65
2023/12/26 09:31:32;;;;;;;10.82;3.60;;;;;;;;;;5104336;28;20471;-65
2023/12/26 09:33:58;;;;;;;9.82;2.97;;;;;;;;;;5100284;28;20133;-65
2023/12/26 09:36:24;;;;;;;8.48;3.40;;;;;;;;;;5105223;28;20307;-65
2023/12/26 09:38:50;;;;;;;9.27;4.10;;;;;;;;;;5103261;28;20341;-66
2023/12/26 09:41:17;;;;;;;16.08;3.72;;;;;;;;;;5105304;28;20050;-66
2023/12/26 09:43:43;;;;;;;11.57;5.05;;;;;;;;;;5103486;28;20494;-64
2023/12/26 09:46:09;;;;;;;14.25;3.67;;;;;;;;;;5102423;28;20047;-65
2023/12/26 09:48:36;;;;;;;14.05;3.50;;;;;;;;;;5102358;28;20149;-66
2023/12/26 09:51:07;;;;;;;6.00;3.17;;;;;;;;;;5101988;28;20050;-65
2023/12/26 09:53:34;;;;;;;9.60;3.60;;;;;;;;;;5100313;28;20489;-66
2023/12/26 09:56:04;;;;;;;10.70;3.58;;;;;;;;;;5093213;28;20035;-65
2023/12/26 09:58:30;;;;;;;12.95;3.97;;;;;;;;;;5101257;28;20058;-66
2023/12/26 10:00:58;;;;;;;13.40;4.13;;;;;;;;;;5102965;28;20176;-66
2023/12/26 10:03:24;;;;;;;10.00;3.53;;;;;;;;;;5099852;28;20783;-65
2023/12/26 10:05:57;;;;;;;7.45;2.95;;;;;;;;;;5099895;28;20422;-65
2023/12/26 10:08:29;;;;;;;8.82;2.70;;;;;;;;;;5099381;28;20126;-65
2023/12/26 10:10:55;;;;;;;14.60;3.20;;;;;;;;;;5100057;28;20522;-65
2023/12/26 10:13:21;;;;;;;14.07;4.65;;;;;;;;;;5099447;28;20127;-65
2023/12/26 10:15:47;;;;;;;6.70;3.10;;;;;;;;;;5098876;28;20122;-65
2023/12/26 10:18:14;;;;;;;8.20;3.25;;;;;;;;;;5100679;28;20040;-66
2023/12/26 10:20:40;;;;;;;11.30;3.60;;;;;;;;;;5098883;28;20044;-66
2023/12/26 10:23:06;;;;;;;13.80;3.65;;;;;;;;;;5098997;28;20040;-66
2023/12/26 10:25:32;;;;;;;12.02;3.63;;;;;;;;;;5097995;28;20117;-67
2023/12/26 10:27:59;;;;;;;7.82;3.42;;;;;;;;;;5100364;28;20050;-65
2023/12/26 10:30:26;;;;;;;9.20;3.35;;;;;;;;;;5096318;28;20419;-65
2023/12/26 10:32:59;;;;;;;9.80;3.28;;;;;;;;;;5099906;28;20550;-66
2023/12/26 10:35:25;;;;;;;10.18;3.50;;;;;;;;;;5100083;28;20047;-65
2023/12/26 10:37:53;;;;;;;14.82;4.85;;;;;;;;;;5097673;28;20075;-65
2023/12/26 10:40:20;;;;;;;16.65;5.97;;;;;;;;;;5098048;28;20043;-67
2023/12/26 10:42:49;;;;;;;8.82;3.47;;;;;;;;;;5098817;28;20609;-66
2023/12/26 10:45:15;;;;;;;7.95;3.47;;;;;;;;;;5099630;28;20047;-64
2023/12/26 10:47:46;;;;;;;10.85;3.65;;;;;;;;;;5098888;28;20093;-66
2023/12/26 10:50:14;;;;;;;11.73;4.00;;;;;;;;;;5101787;28;20100;-66
2023/12/26 10:55:25;;;;;;;17.83;4.00;;;;;;;;;;5098659;28;20056;-65
2023/12/26 10:57:52;;;;;;;8.77;2.80;;;;;;;;;;5099311;28;20051;-65
2023/12/26 13:53:58;;;;;;;3.35;2.03;;;;;;;;;;5120721;27;20161;-66
2023/12/26 13:56:43;;;;;;;6.80;2.25;;;;;;;;;;5119124;27;20498;-65
2023/12/26 13:59:28;;;;;;;6.85;2.45;;;;;;;;;;5117013;27;20045;-67
2023/12/26 14:02:13;;;;;;;4.05;1.77;;;;;;;;;;5120988;27;20565;-65
2023/12/26 14:04:57;;;;;;;7.30;2.28;;;;;;;;;;5121654;27;20135;-66
2023/12/26 14:07:44;;;;;;;6.97;2.42;;;;;;;;;;5117997;27;20043;-66
2023/12/26 14:10:29;;;;;;;5.53;1.85;;;;;;;;;;5123027;27;20043;-66
2023/12/26 14:13:14;;;;;;;4.38;1.70;;;;;;;;;;5119834;27;20519;-66
2023/12/26 14:15:58;;;;;;;6.22;1.85;;;;;;;;;;5120534;27;20378;-67
2023/12/26 14:18:43;;;;;;;6.80;2.17;;;;;;;;;;5121026;27;20216;-67
2023/12/26 14:21:28;;;;;;;6.45;2.47;;;;;;;;;;5100602;27;20073;-66
2023/12/26 14:24:13;;;;;;;3.15;1.45;;;;;;;;;;5114810;27;20039;-66
2023/12/26 14:26:57;;;;;;;5.50;1.85;;;;;;;;;;5117933;27;20043;-66
2023/12/26 14:29:43;;;;;;;4.43;1.80;;;;;;;;;;5099368;27;20054;-66
2023/12/26 14:32:27;;;;;;;4.68;1.58;;;;;;;;;;5101449;27;20055;-66
2023/12/26 14:35:13;;;;;;;7.43;1.90;;;;;;;;;;5100807;27;20059;-66
2023/12/26 14:37:57;;;;;;;7.15;1.80;;;;;;;;;;5121406;27;20613;-65
2023/12/26 14:40:42;;;;;;;5.53;1.80;;;;;;;;;;5120595;27;20085;-66
2023/12/26 14:43:27;;;;;;;4.90;1.60;;;;;;;;;;5122512;27;20042;-66
2023/12/26 14:46:14;;;;;;;5.53;1.80;;;;;;;;;;5123272;27;20047;-65
2023/12/26 14:48:59;;;;;;;7.55;1.83;;;;;;;;;;5123294;27;20126;-66
2023/12/26 14:51:44;;;;;;;4.57;1.88;;;;;;;;;;5122826;27;20391;-66
2023/12/26 14:54:29;;;;;;;5.68;1.73;;;;;;;;;;5123450;27;20047;-65
2023/12/26 14:57:14;;;;;;;4.07;2.05;;;;;;;;;;5123378;27;20372;-66
2023/12/26 14:59:59;;;;;;;5.80;2.05;;;;;;;;;;5124213;27;20039;-65
2023/12/26 15:02:25;;;;;;;4.65;1.70;;;;;;;;;;5123399;27;20043;-64
2023/12/26 15:04:51;;;;;;;5.93;1.70;;;;;;;;;;5104342;27;20091;-66
2023/12/26 15:07:18;;;;;;;2.95;1.40;;;;;;;;;;5122783;27;20050;-65
2023/12/26 15:09:44;;;;;;;6.15;1.65;;;;;;;;;;5088306;27;20244;-65
2023/12/26 15:12:11;;;;;;;4.20;1.67;;;;;;;;;;5123281;27;20505;-66
2023/12/26 15:14:37;;;;;;;9.55;1.95;;;;;;;;;;5103812;27;20196;-66
2023/12/26 15:17:03;;;;;;;6.93;1.63;;;;;;;;;;5123153;27;20039;-64
2023/12/26 15:19:30;;;;;;;4.20;1.48;;;;;;;;;;5123600;27;20107;-65
2023/12/26 15:21:56;;;;;;;6.07;1.73;;;;;;;;;;5122083;27;20039;-64
2023/12/26 15:24:22;;;;;;;6.32;2.22;;;;;;;;;;5123951;27;20061;-65
2023/12/26 15:26:48;;;;;;;6.70;1.77;;;;;;;;;;5122637;27;20042;-66
2023/12/26 15:29:15;;;;;;;5.70;1.83;;;;;;;;;;5123291;27;20043;-66
2023/12/26 15:31:42;;;;;;;5.00;1.70;;;;;;;;;;5103093;27;20066;-66
2023/12/26 15:34:08;;;;;;;7.85;2.03;;;;;;;;;;5123227;28;20085;-66
2023/12/26 15:36:34;;;;;;;3.95;1.60;;;;;;;;;;5123293;27;20347;-66
2023/12/26 15:39:00;;;;;;;5.93;2.33;;;;;;;;;;5123734;28;20658;-66
2023/12/26 15:41:27;;;;;;;4.10;1.95;;;;;;;;;;5122655;28;20039;-66
2023/12/26 15:43:53;;;;;;;6.95;2.15;;;;;;;;;;5123495;28;20047;-66
2023/12/26 15:46:19;;;;;;;7.65;2.58;;;;;;;;;;5123696;27;20039;-66
2023/12/26 15:48:46;;;;;;;4.45;2.13;;;;;;;;;;5127463;27;20054;-67
2023/12/26 15:51:13;;;;;;;7.93;2.33;;;;;;;;;;5127648;27;20070;-66
2023/12/26 15:53:43;;;;;;;12.07;2.33;;;;;;;;;;5127293;27;20054;-65
2023/12/26 15:56:09;;;;;;;5.07;2.10;;;;;;;;;;5126811;27;20745;-65
2023/12/26 15:58:35;;;;;;;6.18;1.85;;;;;;;;;;5127262;27;20088;-64
2023/12/26 16:01:01;;;;;;;9.13;2.30;;;;;;;;;;5125639;27;20035;-65
2023/12/26 16:03:28;;;;;;;4.13;1.95;;;;;;;;;;5106608;27;20051;-65
2023/12/26 16:05:54;;;;;;;3.90;1.75;;;;;;;;;;5127270;27;20088;-65
2023/12/26 16:08:24;;;;;;;7.03;1.70;;;;;;;;;;5107749;27;20114;-65
2023/12/26 16:10:50;;;;;;;8.90;2.05;;;;;;;;;;5106983;27;20059;-65
2023/12/26 16:13:16;;;;;;;7.15;2.25;;;;;;;;;;5127018;27;20213;-67
2023/12/26 16:15:43;;;;;;;7.75;2.53;;;;;;;;;;5126928;27;20138;-66
2023/12/26 16:18:09;;;;;;;5.50;1.95;;;;;;;;;;5126527;27;20053;-66
2023/12/26 16:20:35;;;;;;;4.65;2.00;;;;;;;;;;5106959;27;20042;-66
2023/12/26 16:23:11;;;;;;;10.85;2.85;;;;;;;;;;5126983;27;20073;-66
2023/12/26 16:25:37;;;;;;;6.90;2.30;;;;;;;;;;5126776;27;20475;-66
2023/12/26 16:28:03;;;;;;;4.95;2.53;;;;;;;;;;5107199;27;20103;-66
2023/12/26 16:30:30;;;;;;;6.88;2.05;;;;;;;;;;5106828;27;20103;-65
2023/12/26 16:33:00;;;;;;;6.35;2.60;;;;;;;;;;5126203;27;20145;-65
2023/12/26 16:35:26;;;;;;;7.18;2.22;;;;;;;;;;5126497;27;20063;-65
2023/12/26 16:37:52;;;;;;;6.47;2.45;;;;;;;;;;5126371;27;20049;-66
2023/12/26 16:40:18;;;;;;;6.68;2.20;;;;;;;;;;5126601;27;20039;-65
2023/12/26 16:42:45;;;;;;;7.95;2.13;;;;;;;;;;5126310;27;20056;-66
2023/12/26 16:45:17;;;;;;;7.57;2.15;;;;;;;;;;5125987;27;20061;-66
2023/12/26 16:47:43;;;;;;;5.75;2.30;;;;;;;;;;5126499;27;20043;-67
2023/12/26 16:50:09;;;;;;;6.05;2.05;;;;;;;;;;5125738;27;20051;-66
2023/12/26 16:52:35;;;;;;;8.55;2.38;;;;;;;;;;5125608;27;20386;-66
2023/12/26 16:55:01;;;;;;;4.63;2.45;;;;;;;;;;5126224;27;20071;-66
2023/12/26 16:57:29;;;;;;;10.57;2.97;;;;;;;;;;5105950;27;20057;-66
2023/12/26 16:59:56;;;;;;;5.63;2.55;;;;;;;;;;5126752;27;20032;-66
2023/12/26 17:02:22;;;;;;;8.07;2.10;;;;;;;;;;5105847;27;20035;-66
2023/12/26 17:04:48;;;;;;;6.28;2.20;;;;;;;;;;5106631;27;20066;-66
2023/12/26 17:07:14;;;;;;;7.85;2.13;;;;;;;;;;5125506;27;20035;-66
2023/12/26 17:09:41;;;;;;;6.03;2.17;;;;;;;;;;5125972;27;20047;-66
2023/12/26 17:12:08;;;;;;;6.90;2.28;;;;;;;;;;5124956;27;20058;-66
2023/12/26 17:14:35;;;;;;;7.85;2.60;;;;;;;;;;5125720;27;20142;-66
2023/12/26 17:17:01;;;;;;;9.75;3.47;;;;;;;;;;5124888;27;20107;-66
2023/12/26 17:19:28;;;;;;;9.35;2.00;;;;;;;;;;5123543;27;20043;-66
2023/12/26 17:21:54;;;;;;;6.88;2.70;;;;;;;;;;5125032;27;20263;-66
2023/12/26 17:24:21;;;;;;;5.22;2.15;;;;;;;;;;5126144;27;20042;-66
2023/12/26 17:26:48;;;;;;;7.53;3.05;;;;;;;;;;5124919;27;20054;-66
2023/12/26 17:29:14;;;;;;;5.80;2.70;;;;;;;;;;5126108;27;20054;-66
2023/12/26 17:32:00;;;;;;;4.55;1.88;;;;;;;;;;5124975;27;20430;-65
2023/12/26 17:34:27;;;;;;;6.55;2.70;;;;;;;;;;5125146;27;20486;-65
2023/12/26 17:36:53;;;;;;;7.78;2.58;;;;;;;;;;5124268;27;20043;-66